createdAt,value
2022-11-18T00:01:22.048Z,35.15
2022-11-18T00:03:50.182Z,36.10
2022-11-18T00:06:22.151Z,36.47
2022-11-18T00:08:49.149Z,38.45
2022-11-18T00:11:40.358Z,38.75
2022-11-18T00:14:21.196Z,37.70
2022-11-18T00:16:52.793Z,38.88
2022-11-18T00:19:21.603Z,35.88
2022-11-18T00:21:48.738Z,36.58
2022-11-18T00:24:15.548Z,40.13
2022-11-18T00:26:42.445Z,39.10
2022-11-18T00:29:12.985Z,37.03
2022-11-18T00:31:40.314Z,38.78
2022-11-18T00:34:07.561Z,36.25
2022-11-18T00:36:34.283Z,34.35
2022-11-18T00:39:01.233Z,36.15
2022-11-18T00:41:50.572Z,33.92
2022-11-18T00:44:17.608Z,34.83
2022-11-18T00:46:44.299Z,33.58
2022-11-18T00:49:11.022Z,29.20
2022-11-18T00:51:37.882Z,34.22
2022-11-18T00:54:04.706Z,30.90
2022-11-18T00:56:32.094Z,30.65
2022-11-18T00:58:59.006Z,33.65
2022-11-18T01:01:26.440Z,31.40
2022-11-18T01:03:54.774Z,32.80
2022-11-18T01:06:21.512Z,32.25
2022-11-18T01:08:48.191Z,34.50
2022-11-18T01:11:33.537Z,27.77
2022-11-18T01:14:00.290Z,28.65
2022-11-18T01:16:28.035Z,26.73
2022-11-18T01:18:54.883Z,27.73
2022-11-18T01:21:21.776Z,25.60
2022-11-18T01:23:49.092Z,35.90
2022-11-18T01:26:16.931Z,28.73
2022-11-18T01:28:44.286Z,31.23
2022-11-18T01:31:17.832Z,29.88
2022-11-18T01:33:45.475Z,31.10
2022-11-18T01:36:23.478Z,33.85
2022-11-18T01:38:51.619Z,28.55
2022-11-18T01:41:20.683Z,27.00
2022-11-18T01:43:55.154Z,28.67
2022-11-18T01:46:24.059Z,28.60
2022-11-18T01:48:55.618Z,29.77
2022-11-18T01:51:31.740Z,24.75
2022-11-18T01:54:16.505Z,25.90
2022-11-18T01:56:47.472Z,21.38
2022-11-18T01:59:20.748Z,21.75
2022-11-18T02:01:47.791Z,20.42
2022-11-18T02:04:15.299Z,19.23
2022-11-18T02:06:46.460Z,19.23
2022-11-18T02:09:15.890Z,20.98
2022-11-18T02:11:56.384Z,17.73
2022-11-18T02:14:36.299Z,19.73
2022-11-18T02:17:07.345Z,21.83
2022-11-18T02:19:48.960Z,19.05
2022-11-18T02:22:53.630Z,20.02
2022-11-18T02:25:49.783Z,24.85
2022-11-18T02:28:22.843Z,23.27
2022-11-18T02:31:12.098Z,22.10
2022-11-18T02:33:50.268Z,21.83
2022-11-18T02:36:30.475Z,19.05
2022-11-18T02:39:07.769Z,19.52
2022-11-18T02:41:36.685Z,19.65
2022-11-18T02:44:20.945Z,17.27
2022-11-18T02:46:51.461Z,19.50
2022-11-18T02:49:29.010Z,17.38
2022-11-18T02:51:57.875Z,20.13
2022-11-18T02:54:26.501Z,16.27
2022-11-18T02:56:54.481Z,19.85
2022-11-18T02:59:21.457Z,22.52
2022-11-18T03:01:48.488Z,22.70
2022-11-18T03:04:18.481Z,16.92
2022-11-18T03:07:11.147Z,20.52
2022-11-18T03:09:40.791Z,20.70
2022-11-18T03:12:27.050Z,20.70
2022-11-18T03:14:53.947Z,21.60
2022-11-18T03:17:38.804Z,19.52
2022-11-18T03:20:35.077Z,19.92
2022-11-18T03:23:16.953Z,18.63
2022-11-18T03:25:58.608Z,17.55
2022-11-18T03:28:32.551Z,18.48
2022-11-18T03:30:59.489Z,23.55
2022-11-18T03:34:03.678Z,20.98
2022-11-18T03:36:35.796Z,20.45
2022-11-18T03:39:05.242Z,21.92
2022-11-18T03:41:36.897Z,23.45
2022-11-18T03:44:26.352Z,24.95
2022-11-18T03:47:02.622Z,27.15
2022-11-18T03:49:43.671Z,28.77
2022-11-18T03:52:21.746Z,28.38
2022-11-18T03:54:52.453Z,27.63
2022-11-18T04:00:07.619Z,29.83
2022-11-18T04:02:34.679Z,27.60
2022-11-18T04:05:04.606Z,31.58
2022-11-18T04:07:36.884Z,28.48
2022-11-18T04:10:13.849Z,29.95
2022-11-18T04:12:53.403Z,31.27
2022-11-18T04:15:20.480Z,31.95
2022-11-18T04:17:49.537Z,33.17
2022-11-18T04:20:22.035Z,32.15
2022-11-18T04:22:50.244Z,34.28
2022-11-18T04:25:17.333Z,33.10
2022-11-18T04:27:44.229Z,32.45
2022-11-18T04:30:11.686Z,36.20
2022-11-18T04:32:38.441Z,35.40
2022-11-18T04:35:05.433Z,30.25
2022-11-18T04:37:32.420Z,34.38
2022-11-18T04:39:59.162Z,32.85
2022-11-18T04:42:25.883Z,31.70
2022-11-18T04:44:52.833Z,34.78
2022-11-18T04:47:19.557Z,35.70
2022-11-18T04:49:46.302Z,35.45
2022-11-18T04:52:13.717Z,36.20
2022-11-18T04:54:40.631Z,36.65
2022-11-18T04:57:07.426Z,41.67
2022-11-18T04:59:34.353Z,36.30
2022-11-18T05:02:01.096Z,37.58
2022-11-18T05:04:31.353Z,40.75
2022-11-18T05:06:59.268Z,38.75
2022-11-18T05:09:31.588Z,41.92
2022-11-18T05:12:18.256Z,43.70
2022-11-18T05:14:49.628Z,40.75
2022-11-18T05:17:18.342Z,40.05
2022-11-18T05:19:45.045Z,42.85
2022-11-18T05:22:13.209Z,41.78
2022-11-18T05:24:40.084Z,41.60
2022-11-18T05:27:06.788Z,39.15
2022-11-18T05:29:33.636Z,39.97
2022-11-18T05:32:00.706Z,43.13
2022-11-18T05:34:27.455Z,36.47
2022-11-18T05:36:54.142Z,35.17
2022-11-18T05:39:21.407Z,35.10
2022-11-18T05:42:07.020Z,38.10
2022-11-18T05:44:33.891Z,35.95
2022-11-18T05:47:00.683Z,39.47
2022-11-18T05:49:27.546Z,38.13
2022-11-18T05:51:54.492Z,39.15
2022-11-18T05:54:22.200Z,35.47
2022-11-18T05:56:49.188Z,36.53
2022-11-18T05:59:16.647Z,39.03
2022-11-18T06:02:05.421Z,35.17
2022-11-18T06:04:39.792Z,34.03
2022-11-18T06:07:12.482Z,36.20
2022-11-18T06:09:42.152Z,33.30
2022-11-18T06:12:14.605Z,37.50
2022-11-18T06:14:49.952Z,36.20
2022-11-18T06:17:22.795Z,42.83
2022-11-18T06:19:51.306Z,36.95
2022-11-18T06:22:18.076Z,36.63
2022-11-18T06:24:47.733Z,32.30
2022-11-18T06:27:17.811Z,34.17
2022-11-18T06:29:46.784Z,37.92
2022-11-18T06:32:16.415Z,34.40
2022-11-18T06:34:43.160Z,36.70
2022-11-18T06:37:20.489Z,32.28
2022-11-18T06:39:49.697Z,38.25
2022-11-18T06:42:40.715Z,30.90
2022-11-18T06:45:07.919Z,33.25
2022-11-18T06:47:34.670Z,35.83
2022-11-18T06:50:01.572Z,34.13
2022-11-18T06:52:30.701Z,29.95
2022-11-18T06:54:57.776Z,28.73
2022-11-18T06:57:24.901Z,28.00
2022-11-18T06:59:51.759Z,32.40
2022-11-18T07:02:21.636Z,31.23
2022-11-18T07:04:51.188Z,28.30
2022-11-18T07:07:20.436Z,30.20
2022-11-18T07:15:06.825Z,30.77
2022-11-18T07:17:37.117Z,31.42
2022-11-18T07:20:04.782Z,29.25
2022-11-18T07:22:31.578Z,28.48
2022-11-18T07:25:04.830Z,30.48
2022-11-18T07:27:40.701Z,27.33
2022-11-18T07:30:09.233Z,27.73
2022-11-18T07:32:36.320Z,28.85
2022-11-18T07:35:09.720Z,32.35
2022-11-18T07:37:43.417Z,30.27
2022-11-18T07:40:10.764Z,27.00
2022-11-18T07:42:44.653Z,28.75
2022-11-18T07:45:14.373Z,29.88
2022-11-18T07:47:41.150Z,27.67
2022-11-18T07:50:13.151Z,32.70
2022-11-18T07:52:39.859Z,31.15
2022-11-18T07:55:09.992Z,32.65
2022-11-18T07:57:39.794Z,27.17
2022-11-18T08:00:13.261Z,26.17
2022-11-18T08:02:40.319Z,25.80
2022-11-18T08:05:25.447Z,30.88
2022-11-18T08:07:52.403Z,30.15
2022-11-18T08:10:20.743Z,31.40
2022-11-18T08:12:48.739Z,32.80
2022-11-18T08:15:20.347Z,28.98
2022-11-18T08:17:52.896Z,27.17
2022-11-18T08:20:19.956Z,31.88
2022-11-18T08:22:58.592Z,29.52
2022-11-18T08:25:25.460Z,30.65
2022-11-18T08:27:56.986Z,30.30
2022-11-18T08:30:25.224Z,29.30
2022-11-18T08:32:55.666Z,28.95
2022-11-18T08:35:22.543Z,28.67
2022-11-18T08:37:59.766Z,31.73
2022-11-18T08:40:26.903Z,44.72
2022-11-18T08:42:53.850Z,34.08
2022-11-18T08:45:20.594Z,35.90
2022-11-18T08:47:49.434Z,38.95
2022-11-18T08:50:20.252Z,35.70
2022-11-18T08:52:52.045Z,33.92
2022-11-18T08:55:21.357Z,33.38
2022-11-18T08:57:52.303Z,33.92
2022-11-18T09:00:24.323Z,31.98
2022-11-18T09:02:52.681Z,31.52
2022-11-18T09:05:21.990Z,37.55
2022-11-18T09:07:53.885Z,36.08
2022-11-18T09:10:25.779Z,35.08
2022-11-18T09:13:18.144Z,36.33
2022-11-18T09:15:46.058Z,35.47
2022-11-18T09:18:15.458Z,38.92
2022-11-18T09:20:44.475Z,37.95
2022-11-18T09:23:23.110Z,34.13
2022-11-18T09:26:03.560Z,36.88
2022-11-18T09:28:30.535Z,36.58
2022-11-18T09:30:57.719Z,35.42
2022-11-18T09:33:24.825Z,37.58
2022-11-18T09:35:51.905Z,35.90
2022-11-18T09:38:18.638Z,38.25
2022-11-18T09:41:24.283Z,37.60
2022-11-18T09:44:10.973Z,37.33
2022-11-18T09:47:03.484Z,50.33
2022-11-18T09:49:41.822Z,41.00
2022-11-18T09:52:39.345Z,38.72
2022-11-18T09:55:18.457Z,41.15
2022-11-18T09:57:48.942Z,35.38
2022-11-18T10:00:22.648Z,42.50
2022-11-18T10:03:01.703Z,39.53
2022-11-18T10:05:40.967Z,39.05
2022-11-18T10:08:12.119Z,43.28
2022-11-18T10:11:19.277Z,44.65
2022-11-18T10:14:26.185Z,39.78
2022-11-18T10:17:38.491Z,40.65
2022-11-18T10:20:24.818Z,55.15
2022-11-18T10:23:10.794Z,44.55
2022-11-18T10:25:37.954Z,46.53
2022-11-18T10:28:31.426Z,41.72
2022-11-18T10:31:12.090Z,44.22
2022-11-18T10:33:39.527Z,42.88
2022-11-18T10:36:27.205Z,47.80
2022-11-18T10:39:21.084Z,50.33
2022-11-18T10:41:59.761Z,51.72
2022-11-18T10:44:59.920Z,46.38
2022-11-18T10:47:32.829Z,45.15
2022-11-18T10:50:05.121Z,44.95
2022-11-18T10:52:35.066Z,42.28
2022-11-18T10:55:20.927Z,40.85
2022-11-18T10:57:49.894Z,40.13
2022-11-18T11:00:49.887Z,40.35
2022-11-18T11:04:02.155Z,40.88
2022-11-18T11:06:39.561Z,42.47
2022-11-18T11:09:08.346Z,40.92
2022-11-18T11:11:43.615Z,41.05
2022-11-18T11:14:22.578Z,40.60
2022-11-18T11:17:00.769Z,37.05
2022-11-18T11:19:55.066Z,36.63
2022-11-18T11:22:22.649Z,40.65
2022-11-18T11:24:53.215Z,44.15
2022-11-18T11:28:14.573Z,41.97
2022-11-18T11:30:51.972Z,39.25
2022-11-18T11:33:48.068Z,36.90
2022-11-18T11:36:50.710Z,41.13
2022-11-18T11:39:37.727Z,39.55
2022-11-18T11:42:06.079Z,42.17
2022-11-18T11:44:58.302Z,42.28
2022-11-18T11:48:00.657Z,37.35
2022-11-18T11:51:00.064Z,37.53
2022-11-18T11:54:17.263Z,41.47
2022-11-18T11:56:57.752Z,42.25
2022-11-18T11:59:33.141Z,41.22
2022-11-18T12:02:21.623Z,36.55
2022-11-18T12:04:51.768Z,38.35
2022-11-18T12:07:22.878Z,38.63
2022-11-18T12:09:52.735Z,39.80
2022-11-18T12:12:36.515Z,40.40
2022-11-18T12:15:18.663Z,41.75
2022-11-18T12:18:11.944Z,40.25
2022-11-18T12:20:48.672Z,37.60
2022-11-18T12:23:21.584Z,39.13
2022-11-18T12:25:48.654Z,38.67
2022-11-18T12:28:32.059Z,37.03
2022-11-18T12:31:25.864Z,36.90
2022-11-18T12:33:58.971Z,37.22
2022-11-18T12:36:30.566Z,38.25
2022-11-18T12:39:00.746Z,36.00
2022-11-18T12:41:58.167Z,38.85
2022-11-18T12:44:27.535Z,34.35
2022-11-18T12:46:56.480Z,57.72
2022-11-18T12:49:23.172Z,38.47
2022-11-18T12:52:01.142Z,36.00
2022-11-18T12:54:32.950Z,39.95
2022-11-18T12:57:13.542Z,34.67
2022-11-18T12:59:46.810Z,34.83
2022-11-18T13:02:23.482Z,40.75
2022-11-18T13:05:11.528Z,38.67
2022-11-18T13:08:17.487Z,40.40
2022-11-18T13:10:44.503Z,36.95
2022-11-18T13:13:21.317Z,34.53
2022-11-18T13:16:09.598Z,40.40
2022-11-18T13:18:50.089Z,33.85
2022-11-18T13:21:45.153Z,35.42
2022-11-18T13:24:15.763Z,31.77
2022-11-18T13:26:47.415Z,32.83
2022-11-18T13:29:35.167Z,39.33
2022-11-18T13:32:08.467Z,33.45
2022-11-18T13:34:51.771Z,33.97
2022-11-18T13:37:30.503Z,32.85
2022-11-18T13:39:57.543Z,33.22
2022-11-18T13:42:31.742Z,32.47
2022-11-18T13:45:03.370Z,35.33
2022-11-18T13:47:36.548Z,34.78
2022-11-18T13:50:30.635Z,35.75
2022-11-18T13:53:39.010Z,31.92
2022-11-18T13:56:24.098Z,29.27
2022-11-18T14:01:38.387Z,25.35
2022-11-18T14:04:19.769Z,25.35
2022-11-18T14:06:46.904Z,29.45
2022-11-18T14:09:30.602Z,31.92
2022-11-18T14:12:12.567Z,31.33
2022-11-18T14:14:42.223Z,28.15
2022-11-18T14:17:18.995Z,25.98
2022-11-18T14:19:51.445Z,25.52
2022-11-18T14:22:22.417Z,30.33
2022-11-18T14:25:02.603Z,28.40
2022-11-18T14:27:41.285Z,23.90
2022-11-18T14:30:27.278Z,24.38
2022-11-18T14:33:06.243Z,24.95
2022-11-18T14:35:36.095Z,24.45
2022-11-18T14:38:35.907Z,28.25
2022-11-18T14:41:08.508Z,25.83
2022-11-18T14:43:35.426Z,27.80
2022-11-18T14:46:15.869Z,24.30
2022-11-18T14:48:44.256Z,25.02
2022-11-18T14:51:15.682Z,28.73
2022-11-18T14:53:45.210Z,26.40
2022-11-18T14:56:38.155Z,34.40
2022-11-18T14:59:04.913Z,25.92
2022-11-18T15:01:33.097Z,28.08
2022-11-18T15:03:59.917Z,27.88
2022-11-18T15:06:28.505Z,25.55
2022-11-18T15:08:55.439Z,25.70
2022-11-18T15:11:22.582Z,27.20
2022-11-18T15:13:54.139Z,24.23
2022-11-18T15:16:23.994Z,23.08
2022-11-18T15:18:53.181Z,19.98
2022-11-18T15:21:20.683Z,25.33
2022-11-18T15:23:47.656Z,31.08
2022-11-18T15:26:26.725Z,26.27
2022-11-18T15:28:55.673Z,25.00
2022-11-18T15:31:24.388Z,25.40
2022-11-18T15:33:55.720Z,22.58
2022-11-18T15:36:26.572Z,23.05
2022-11-18T15:39:10.107Z,22.65
2022-11-18T15:41:48.011Z,23.25
2022-11-18T15:44:15.158Z,23.35
2022-11-18T15:46:43.958Z,24.77
2022-11-18T15:49:24.008Z,25.10
2022-11-18T15:51:54.545Z,25.98
2022-11-18T15:54:21.604Z,30.33
2022-11-18T15:56:52.097Z,28.35
2022-11-18T15:59:19.625Z,27.45
2022-11-18T16:01:58.495Z,27.13
2022-11-18T16:04:34.444Z,31.40
2022-11-18T16:07:04.734Z,33.97
2022-11-18T16:09:57.520Z,26.30
2022-11-18T16:12:46.648Z,29.48
2022-11-18T16:15:40.236Z,25.38
2022-11-18T16:18:07.095Z,27.58
2022-11-18T16:20:33.855Z,25.90
2022-11-18T16:23:00.626Z,25.17
2022-11-18T16:25:28.111Z,23.75
2022-11-18T16:27:57.729Z,30.73
2022-11-18T16:30:54.714Z,30.95
2022-11-18T16:33:24.341Z,28.02
2022-11-18T16:35:51.206Z,27.15
2022-11-18T16:38:26.165Z,32.13
2022-11-18T16:40:57.353Z,29.45
2022-11-18T16:43:24.990Z,27.83
2022-11-18T16:45:57.216Z,29.08
2022-11-18T16:48:25.422Z,29.63
2022-11-18T16:51:28.984Z,30.60
2022-11-18T16:54:03.151Z,37.53
2022-11-18T16:56:43.873Z,35.30
2022-11-18T17:01:58.188Z,30.77
2022-11-18T17:04:27.172Z,31.13
2022-11-18T17:06:54.829Z,31.63
2022-11-18T17:09:23.958Z,30.80
2022-11-18T17:11:53.553Z,32.50
2022-11-18T17:14:25.910Z,31.77
2022-11-18T17:16:53.294Z,31.52
2022-11-18T17:19:26.809Z,27.55
2022-11-18T17:21:53.549Z,27.77
2022-11-18T17:24:22.721Z,26.38
2022-11-18T17:26:50.531Z,31.88
2022-11-18T17:29:19.491Z,32.72
2022-11-18T17:31:47.754Z,34.05
2022-11-18T17:34:17.332Z,28.92
2022-11-18T17:36:44.511Z,24.90
2022-11-18T17:39:13.163Z,31.42
2022-11-18T17:42:03.255Z,25.40
2022-11-18T17:44:30.019Z,26.35
2022-11-18T17:46:56.832Z,30.77
2022-11-18T17:49:23.622Z,30.63
2022-11-18T17:51:51.446Z,24.85
2022-11-18T17:54:21.565Z,28.45
2022-11-18T17:56:49.837Z,29.92
2022-11-18T17:59:18.500Z,30.42
2022-11-18T18:01:45.859Z,33.65
2022-11-18T18:04:20.686Z,38.60
2022-11-18T18:06:51.608Z,30.85
2022-11-18T18:11:46.292Z,27.33
2022-11-18T18:14:13.078Z,26.67
2022-11-18T18:16:50.248Z,30.50
2022-11-18T18:19:25.582Z,31.42
2022-11-18T18:21:53.598Z,30.83
2022-11-18T18:24:21.806Z,32.10
2022-11-18T18:26:49.244Z,33.33
2022-11-18T18:29:16.111Z,31.23
2022-11-18T18:31:43.573Z,32.72
2022-11-18T18:34:14.223Z,34.45
2022-11-18T18:39:26.488Z,33.55
2022-11-18T18:42:10.836Z,30.95
2022-11-18T18:44:56.461Z,32.15
2022-11-18T18:47:23.297Z,31.38
2022-11-18T18:49:50.051Z,30.73
2022-11-18T18:52:16.791Z,33.13
2022-11-18T18:54:43.498Z,33.92
2022-11-18T18:57:13.504Z,34.92
2022-11-18T18:59:40.579Z,29.90
2022-11-18T19:02:07.511Z,33.42
2022-11-18T19:04:39.710Z,33.53
2022-11-18T19:07:08.040Z,32.10
2022-11-18T19:09:38.272Z,30.58
2022-11-18T19:12:23.993Z,32.05
2022-11-18T19:14:51.003Z,28.92
2022-11-18T19:17:20.445Z,30.85
2022-11-18T19:20:05.665Z,32.90
2022-11-18T19:22:33.258Z,39.55
2022-11-18T19:25:01.405Z,28.83
2022-11-18T19:27:29.453Z,34.92
2022-11-18T19:29:56.373Z,33.13
2022-11-18T19:32:23.627Z,31.20
2022-11-18T19:34:56.494Z,30.73
2022-11-18T19:37:34.538Z,32.00
2022-11-18T19:40:08.966Z,44.40
2022-11-18T19:42:54.706Z,40.17
2022-11-18T19:45:23.735Z,29.08
2022-11-18T19:47:50.543Z,26.90
2022-11-18T19:50:27.923Z,28.48
2022-11-18T19:52:54.683Z,29.08
2022-11-18T19:55:21.502Z,27.88
2022-11-18T19:57:48.303Z,30.23
2022-11-18T20:00:17.073Z,31.00
2022-11-18T20:02:43.821Z,32.58
2022-11-18T20:05:44.635Z,31.42
2022-11-18T20:08:13.799Z,28.00
2022-11-18T20:10:40.561Z,30.83
2022-11-18T20:13:12.935Z,31.52
2022-11-18T20:15:42.982Z,34.10
2022-11-18T20:18:10.752Z,32.45
2022-11-18T20:20:37.981Z,32.33
2022-11-18T20:23:05.484Z,30.42
2022-11-18T20:25:32.433Z,35.10
2022-11-18T20:28:01.943Z,33.05
2022-11-18T20:30:30.128Z,33.85
2022-11-18T20:33:04.191Z,30.02
2022-11-18T20:35:47.265Z,33.78
2022-11-18T20:38:21.592Z,34.85
2022-11-18T20:40:50.789Z,37.03
2022-11-18T20:43:17.607Z,32.38
2022-11-18T20:45:56.004Z,32.58
2022-11-18T20:48:25.692Z,32.65
2022-11-18T20:50:52.889Z,34.00
2022-11-18T20:53:31.398Z,35.92
2022-11-18T20:56:01.146Z,38.83
2022-11-18T21:06:26.889Z,39.75
2022-11-18T21:09:38.083Z,37.33
2022-11-18T21:12:04.933Z,31.70
2022-11-18T21:14:31.737Z,41.00
2022-11-18T21:17:13.584Z,36.72
2022-11-18T21:19:47.263Z,35.42
2022-11-18T21:22:15.147Z,34.95
2022-11-18T21:24:42.402Z,33.85
2022-11-18T21:27:10.565Z,33.40
2022-11-18T21:29:37.796Z,35.20
2022-11-18T21:32:05.245Z,29.88
2022-11-18T21:34:32.372Z,30.85
2022-11-18T21:36:59.197Z,30.52
2022-11-18T21:39:29.782Z,35.95
2022-11-18T21:41:58.214Z,34.28
2022-11-18T21:44:38.714Z,35.88
2022-11-18T21:47:09.058Z,38.00
2022-11-18T21:49:36.874Z,34.53
2022-11-18T21:52:03.727Z,33.13
2022-11-18T21:54:35.032Z,33.10
2022-11-18T21:57:09.610Z,35.30
2022-11-18T21:59:38.381Z,38.63
2022-11-18T22:02:05.112Z,33.85
2022-11-18T22:04:50.524Z,36.85
2022-11-18T22:07:17.580Z,35.28
2022-11-18T22:09:44.498Z,34.70
2022-11-18T22:12:11.390Z,38.90
2022-11-18T22:14:38.461Z,32.92
2022-11-18T22:17:09.244Z,33.90
2022-11-18T22:19:36.037Z,34.13
2022-11-18T22:22:02.892Z,34.92
2022-11-18T22:24:33.105Z,35.58
2022-11-18T22:26:59.857Z,34.15
2022-11-18T22:29:26.713Z,32.72
2022-11-18T22:31:53.652Z,38.35
2022-11-18T22:34:20.395Z,40.75
2022-11-18T22:36:47.410Z,38.47
2022-11-18T22:39:14.343Z,41.40
2022-11-18T22:42:00.013Z,38.58
2022-11-18T22:44:26.850Z,33.53
2022-11-18T22:46:53.630Z,32.88
2022-11-18T22:49:20.726Z,39.10
2022-11-18T22:51:47.709Z,39.90
2022-11-18T22:57:01.193Z,34.50
2022-11-18T22:59:27.907Z,38.95
2022-11-18T23:01:55.024Z,35.28
2022-11-18T23:04:21.973Z,33.60
2022-11-18T23:06:51.878Z,33.70
2022-11-18T23:09:18.952Z,34.70
2022-11-18T23:12:05.687Z,33.55
2022-11-18T23:14:32.667Z,36.33
2022-11-18T23:17:03.486Z,37.55
2022-11-18T23:19:30.355Z,38.65
2022-11-18T23:21:57.052Z,34.13
2022-11-18T23:24:25.559Z,31.52
2022-11-18T23:26:52.427Z,38.22
2022-11-18T23:29:20.339Z,35.67
2022-11-18T23:31:47.538Z,35.00
2022-11-18T23:34:15.650Z,34.55
2022-11-18T23:36:44.467Z,33.15
2022-11-18T23:39:11.836Z,36.60
2022-11-18T23:41:42.197Z,35.95
2022-11-18T23:44:11.445Z,34.60
2022-11-18T23:46:38.218Z,32.75
2022-11-18T23:49:09.346Z,35.05
2022-11-18T23:51:36.353Z,30.95
2022-11-18T23:54:03.263Z,30.67
2022-11-18T23:56:33.812Z,35.10
2022-11-18T23:59:03.511Z,34.10
